TSO151 UUDD-UWUU
Flight info
| Callsign | TSO151 |
|---|---|
| Flight time | N/A |
| Altitude | 35000 |
| Route | N0470F350 KOGOM L94 EKPIR M864 INKEB L94 UNORO T788 NAMUD L994 DILUP |
| Aircraft | B763/H-Q/L |
Departure
| Time | 2026-05-06 16:08 |
|---|---|
| Airport | Domodedovo International Airport (UUDD) |
Arrival
| Time | N/A |
|---|---|
| Airport | Ufa International Airport (UWUU) |
| Time | Latitude | Longitude | Altitude | Speed | Heading |
|---|---|---|---|---|---|
| 2026-05-06 15:35 | 55.41202 | 37.90157 | 592 ft | 0 kts | 282° |
| 2026-05-06 15:56 | 55.41199 | 37.90177 | 592 ft | 2 kts | 282° |
| 2026-05-06 15:57 | 55.41196 | 37.90202 | 592 ft | 2 kts | 282° |
| 2026-05-06 15:57 | 55.41193 | 37.90228 | 592 ft | 2 kts | 282° |
| 2026-05-06 15:57 | 55.41190 | 37.90254 | 592 ft | 2 kts | 282° |
| 2026-05-06 15:57 | 55.41187 | 37.90280 | 592 ft | 2 kts | 282° |
| 2026-05-06 15:58 | 55.41184 | 37.90306 | 592 ft | 2 kts | 282° |
| 2026-05-06 15:58 | 55.41182 | 37.90332 | 592 ft | 2 kts | 268° |
| 2026-05-06 15:58 | 55.41184 | 37.90358 | 592 ft | 2 kts | 258° |
| 2026-05-06 15:58 | 55.41188 | 37.90383 | 592 ft | 2 kts | 246° |
| 2026-05-06 15:59 | 55.41195 | 37.90406 | 592 ft | 2 kts | 236° |
| 2026-05-06 15:59 | 55.41204 | 37.90428 | 592 ft | 2 kts | 234° |
| 2026-05-06 15:59 | 55.41208 | 37.90437 | 592 ft | 0 kts | 235° |
| 2026-05-06 16:01 | 55.41206 | 37.90433 | 592 ft | 2 kts | 235° |
| 2026-05-06 16:01 | 55.41180 | 37.90357 | 592 ft | 11 kts | 240° |
| 2026-05-06 16:02 | 55.41135 | 37.90223 | 592 ft | 12 kts | 234° |
| 2026-05-06 16:02 | 55.41082 | 37.90087 | 592 ft | 17 kts | 234° |
| 2026-05-06 16:02 | 55.41002 | 37.89887 | 592 ft | 20 kts | 235° |
| 2026-05-06 16:02 | 55.40948 | 37.89751 | 592 ft | 20 kts | 236° |
| 2026-05-06 16:03 | 55.40920 | 37.89679 | 592 ft | 15 kts | 236° |
| 2026-05-06 16:03 | 55.40886 | 37.89596 | 592 ft | 14 kts | 229° |
| 2026-05-06 16:03 | 55.40817 | 37.89456 | 592 ft | 9 kts | 232° |
| 2026-05-06 16:03 | 55.40771 | 37.89341 | 592 ft | 15 kts | 235° |
| 2026-05-06 16:04 | 55.40688 | 37.89276 | 592 ft | 13 kts | 154° |
| 2026-05-06 16:04 | 55.40608 | 37.89369 | 592 ft | 14 kts | 146° |
| 2026-05-06 16:04 | 55.40502 | 37.89493 | 592 ft | 23 kts | 147° |
| 2026-05-06 16:04 | 55.40352 | 37.89677 | 592 ft | 26 kts | 144° |
| 2026-05-06 16:05 | 55.40202 | 37.89855 | 592 ft | 26 kts | 146° |
| 2026-05-06 16:05 | 55.40051 | 37.90032 | 592 ft | 25 kts | 146° |
| 2026-05-06 16:05 | 55.39903 | 37.90205 | 592 ft | 25 kts | 145° |
| 2026-05-06 16:05 | 55.39756 | 37.90382 | 592 ft | 25 kts | 146° |
| 2026-05-06 16:06 | 55.39640 | 37.90519 | 592 ft | 13 kts | 151° |
| 2026-05-06 16:06 | 55.39572 | 37.90476 | 592 ft | 10 kts | 244° |
| 2026-05-06 16:06 | 55.39539 | 37.90374 | 592 ft | 8 kts | 253° |
| 2026-05-06 16:06 | 55.39554 | 37.90292 | 592 ft | 5 kts | 319° |
| 2026-05-06 16:07 | 55.39593 | 37.90239 | 592 ft | 9 kts | 325° |
| 2026-05-06 16:07 | 55.39705 | 37.90104 | 592 ft | 29 kts | 325° |
| 2026-05-06 16:07 | 55.39917 | 37.89839 | 592 ft | 45 kts | 326° |
| 2026-05-06 16:07 | 55.40312 | 37.89372 | 592 ft | 90 kts | 325° |
| 2026-05-06 16:08 | 55.40942 | 37.88615 | 592 ft | 129 kts | 324° |
| 2026-05-06 16:08 | 55.41780 | 37.87627 | 620 ft | 159 kts | 326° |
| 2026-05-06 16:08 | 55.42695 | 37.86397 | 834 ft | 172 kts | 310° |
| 2026-05-06 16:08 | 55.43419 | 37.84845 | 1494 ft | 160 kts | 307° |
| 2026-05-06 16:09 | 55.44109 | 37.83338 | 1988 ft | 159 kts | 310° |
| 2026-05-06 16:09 | 55.44823 | 37.81863 | 2394 ft | 164 kts | 311° |
| 2026-05-06 16:09 | 55.45619 | 37.80248 | 2623 ft | 181 kts | 311° |
| 2026-05-06 16:09 | 55.46448 | 37.78625 | 3119 ft | 182 kts | 319° |
| 2026-05-06 16:10 | 55.47522 | 37.77605 | 3532 ft | 187 kts | 339° |
| 2026-05-06 16:10 | 55.48809 | 37.76771 | 3660 ft | 211 kts | 338° |
| 2026-05-06 16:10 | 55.50273 | 37.75805 | 3718 ft | 240 kts | 339° |
| 2026-05-06 16:10 | 55.51821 | 37.74929 | 4128 ft | 249 kts | 350° |
| 2026-05-06 16:11 | 55.53524 | 37.75209 | 4543 ft | 261 kts | 19° |
| 2026-05-06 16:11 | 55.55122 | 37.76707 | 5054 ft | 267 kts | 27° |
| 2026-05-06 16:11 | 55.56709 | 37.78308 | 5546 ft | 270 kts | 26° |
| 2026-05-06 16:11 | 55.58347 | 37.79968 | 6042 ft | 274 kts | 26° |
| 2026-05-06 16:12 | 55.60001 | 37.81657 | 6515 ft | 279 kts | 26° |
| 2026-05-06 16:12 | 55.61669 | 37.83370 | 7068 ft | 279 kts | 26° |
| 2026-05-06 16:12 | 55.63225 | 37.85346 | 7420 ft | 293 kts | 44° |
| 2026-05-06 16:12 | 55.64282 | 37.88467 | 7721 ft | 308 kts | 72° |
| 2026-05-06 16:13 | 55.64743 | 37.91948 | 8240 ft | 309 kts | 75° |
| 2026-05-06 16:13 | 55.65264 | 37.95668 | 8705 ft | 312 kts | 73° |
| 2026-05-06 16:13 | 55.65612 | 37.98060 | 9040 ft | 313 kts | 73° |